Flight Track Log - Related Links

Times and Time Zones

All times are in EDT time to prevent confusion due to time zone crossing. See the ASQ5903 flight status page for this flight to view local times or setup timezone preferences in your user account.


Time Position Orientation Groundspeed Altitude Reporting Facility
EDT Latitude Longitude Course Direction KTS MPH feet Rate Location/Type
Sat 07:38:40 AM 45.2833 -75.6167 200° South 190 219 2,300  Level Montreal Center
Sat 07:39:40 AM 45.2333 -75.5333 130° Southeast 250 288 4,400 2,200 Climbing Montreal Center
Sat 07:40:40 AM 45.1833 -75.5000 155° Southeast 260 299 6,700 2,500 Climbing Montreal Center
Sat 07:41:40 AM 45.1167 -75.5333 199° South 240 276 9,400 2,100 Climbing Montreal Center
Sat 07:42:40 AM 45.0667 -75.6167 230° Southwest 270 311 10,900 1,300 Climbing Montreal Center
Sat 07:43:00 AM 44.6386 -75.8829 198° South  Level FlightAware Approximate
Sat 07:43:40 AM 45.0167 -75.6833 223° Southwest 300 345 12,000  Level Montreal Center
Sat 07:44:00 AM 44.5441 -75.9280 200° South  Level FlightAware Approximate
Sat 07:44:40 AM 44.9333 -75.7833 220° Southwest 330 380 13,000  Level Montreal Center
Sat 07:45:40 AM 44.8667 -75.8500 215° Southwest 330 380 14,000 1,050 Climbing Montreal Center
Sat 07:46:40 AM 44.7667 -75.9000 200° South 340 391 15,100 1,050 Climbing Montreal Center
Sat 07:47:40 AM 44.7000 -75.9667 215° Southwest 350 403 16,100 1,000 Climbing Montreal Center
Sat 07:48:40 AM 44.6000 -76.0000 193° South 360 414 17,100 1,150 Climbing Montreal Center
Sat 07:49:40 AM 44.5000 -76.0000 180° South 360 414 18,400 1,150 Climbing Montreal Center
Sat 07:50:40 AM 44.4000 -76.0167 187° South 370 426 19,400 947 Climbing Montreal Center
Sat 07:51:15 AM 44.3578 -76.0206 184° South 376 433 19,900 947 Climbing Boston Center
Sat 07:52:15 AM 44.2511 -76.0314 184° South 382 440 20,900 1,000 Climbing Boston Center
Sat 07:53:15 AM 44.1467 -76.0425 184° South 387 445 21,900 1,050 Climbing Boston Center
Sat 07:54:15 AM 44.0400 -76.0533 184° South 387 445 23,000 1,050 Climbing Boston Center
Sat 07:55:15 AM 43.9350 -76.0703 187° South 387 445 24,000 1,000 Climbing Boston Center
Sat 07:56:15 AM 43.8283 -76.0867 186° South 387 445 25,000 1,000 Climbing Boston Center
Sat 07:57:15 AM 43.7214 -76.1061 187° South 387 445 26,000 1,000 Climbing Boston Center
Sat 07:58:15 AM 43.6186 -76.1258 188° South 387 445 27,000 1,000 Climbing Boston Center
Sat 07:59:15 AM 43.5158 -76.1453 188° South 387 445 28,000 909 Climbing Boston Center
Sat 08:00:27 AM 43.4150 -76.1650 188° South 382 440 29,000 909 Climbing Boston Center
Sat 08:01:27 AM 43.2892 -76.1856 187° South 382 440 30,000 500 Climbing Boston Center
Sat 08:02:27 AM 43.1822 -76.2047 187° South 382 440 30,000  Level Boston Center
Sat 08:03:27 AM 43.0842 -76.2697 206° Southwest 387 445 30,000  Level Boston Center
Sat 08:05:42 AM 42.8722 -76.4442 211° Southwest 407 468 30,000  Level New York Center
Sat 08:06:41 AM 42.7836 -76.5156 211° Southwest 401 461 30,000  Level New York Center
Sat 08:07:42 AM 42.6925 -76.5922 212° Southwest 391 450 30,000  Level New York Center
Sat 08:08:41 AM 42.6039 -76.6603 209° Southwest 386 444 30,000  Level New York Center
Sat 08:09:41 AM 42.5147 -76.7367 212° Southwest 380 437 30,000  Level New York Center
Sat 08:10:42 AM 42.4217 -76.8094 210° Southwest 386 444 30,000  Level New York Center
Sat 08:11:42 AM 42.3258 -76.8878 211° Southwest 396 456 30,000  Level New York Center
Sat 08:12:41 AM 42.2303 -76.9656 211° Southwest 407 468 30,000 -100 Level New York Center
Sat 08:13:42 AM 42.1392 -77.0383 211° Southwest 407 468 29,800 -950 Descending New York Center
Sat 08:14:41 AM 42.0414 -77.1156 210° Southwest 407 468 28,100 -908 Descending New York Center
Sat 08:15:41 AM 41.9478 -77.1875 210° Southwest 407 468 28,000 -50 Descending New York Center
Sat 08:16:41 AM 41.8606 -77.2597 212° Southwest 402 463 28,000  Level New York Center
Sat 08:17:42 AM 41.7672 -77.3314 210° Southwest 396 456 28,000  Level New York Center
Sat 08:18:42 AM 41.6756 -77.4058 211° Southwest 396 456 28,000  Level New York Center
Sat 08:19:43 AM 41.5797 -77.4794 210° Southwest 396 456 28,000 -305 Level New York Center
Sat 08:20:40 AM 41.4839 -77.5558 211° Southwest 406 467 27,400 -1,271 Descending New York Center
Sat 08:21:41 AM 41.3856 -77.6344 211° Southwest 411 473 25,500 -1,902 Descending New York Center
Sat 08:22:43 AM 41.2872 -77.7100 210° Southwest 411 473 23,500 -1,750 Descending New York Center
Sat 08:23:41 AM 41.1956 -77.7806 210° Southwest 411 473 22,000 -763 Descending New York Center
Sat 08:24:41 AM 41.1042 -77.8483 209° Southwest 400 460 22,000  Level New York Center
Sat 08:25:41 AM 41.0081 -77.9208 210° Southwest 395 455 22,000 -950 Level New York Center
Sat 08:26:41 AM 40.9061 -77.9542 194° South 400 460 20,100 -1,488 Descending New York Center
Sat 08:27:42 AM 40.8081 -77.8833 151° Southeast 362 417 19,000 -545 Descending New York Center
Sat 08:28:42 AM 40.7200 -77.7867 140° Southeast 374 430 19,000  Level New York Center
Sat 08:29:43 AM 40.6256 -77.6950 144° Southeast 395 455 19,000  Level New York Center
Sat 08:30:42 AM 40.5203 -77.6378 158° South 412 474 19,000  Level New York Center
Sat 08:31:43 AM 40.4028 -77.5797 159° South 412 474 19,000  Level New York Center
Sat 08:32:40 AM 40.3097 -77.5325 159° South 412 474 19,000 -454 Level New York Center
Sat 08:33:42 AM 40.1939 -77.4778 160° South 412 474 18,100 -1,463 Descending New York Center
Sat 08:34:43 AM 40.0967 -77.4278 159° South 391 450 16,000 -1,600 Descending New York Center
Sat 08:36:57 AM 39.8833 -77.3167 158° South 378 435 12,900 -1,546 Descending Potomac TRACON
Sat 08:37:57 AM 39.7833 -77.3000 173° South 353 406 11,000 -1,450 Descending Potomac TRACON
Sat 08:38:57 AM 39.7167 -77.3167 191° South 281 323 10,000 -737 Descending Potomac TRACON
Sat 08:39:51 AM 39.6667 -77.3333 194° South 256 295 9,600 -771 Descending Potomac TRACON
Sat 08:40:46 AM 39.5833 -77.3500 189° South 255 293 8,600 -992 Descending Potomac TRACON
Sat 08:41:52 AM 39.5333 -77.3833 207° Southwest 244 281 7,600 -800 Descending Potomac TRACON
Sat 08:42:46 AM 39.4667 -77.4333 210° Southwest 231 266 7,000 -316 Descending Potomac TRACON
Sat 08:43:46 AM 39.4000 -77.4500 191° South 251 289 7,000 -368 Level Potomac TRACON
Sat 08:44:40 AM 39.3333 -77.4500 180° South 248 285 6,300 -889 Descending Potomac TRACON
Sat 08:45:34 AM 39.2833 -77.4500 180° South 256 295 5,400 -789 Descending Potomac TRACON
Sat 08:46:34 AM 39.2000 -77.4500 180° South 244 281 4,800 -1,000 Descending Potomac TRACON
Sat 08:47:28 AM 39.1333 -77.4500 180° South 266 306 3,500 -1,368 Descending Potomac TRACON
Sat 08:48:28 AM 39.0667 -77.4500 180° South 243 280 2,200 -1,143 Descending Potomac TRACON
Sat 08:49:34 AM 39.0167 -77.4667 195° South 182 209 1,100 -1,000 Descending Potomac TRACON
Sat 08:51:00 AM 38.9474 -77.4599 180° South  Level Estimated
Sat 08:58:00 AM 38.9474 -77.4599 349° North  Level Estimated
Sat 08:59:00 AM 38.9474 -77.4599 349° North  Level Estimated
Sat 09:00:00 AM 38.9474 -77.4599 349° North  Level Estimated
Sat 09:01:00 AM 38.9474 -77.4599 349° North  Level Estimated

Login

Don't have an account? Register now (free) for customized features, flight alerts, and more!